createdAt,value
2022-11-25T00:03:49.360Z,11.20
2022-11-25T00:08:56.795Z,10.35
2022-11-25T00:13:59.375Z,8.30
2022-11-25T00:19:01.957Z,7.30
2022-11-25T00:24:08.228Z,6.80
2022-11-25T00:29:12.885Z,6.57
2022-11-25T00:34:16.076Z,7.28
2022-11-25T00:39:24.439Z,7.18
2022-11-25T00:44:40.695Z,6.35
2022-11-25T00:49:45.313Z,6.45
2022-11-25T00:54:51.158Z,5.28
2022-11-25T00:59:53.696Z,7.72
2022-11-25T01:04:56.397Z,5.35
2022-11-25T01:10:00.375Z,6.32
2022-11-25T01:15:03.007Z,7.75
2022-11-25T01:20:09.802Z,9.23
2022-11-25T01:25:13.722Z,7.40
2022-11-25T01:30:16.657Z,5.50
2022-11-25T01:35:19.236Z,9.95
2022-11-25T01:40:24.658Z,7.28
2022-11-25T01:45:35.461Z,8.65
2022-11-25T01:50:38.540Z,8.80
2022-11-25T01:55:45.911Z,8.18
2022-11-25T02:00:51.379Z,9.38
2022-11-25T02:06:03.813Z,9.77
2022-11-25T02:11:07.984Z,7.80
2022-11-25T02:16:10.875Z,6.72
2022-11-25T02:21:18.303Z,7.72
2022-11-25T02:26:22.444Z,8.40
2022-11-25T02:31:25.209Z,8.27
2022-11-25T02:36:27.946Z,10.52
2022-11-25T02:41:34.063Z,8.63
2022-11-25T02:46:36.658Z,5.75
2022-11-25T02:51:41.257Z,8.52
2022-11-25T03:01:48.116Z,7.10
2022-11-25T03:06:50.716Z,8.05
2022-11-25T03:12:12.237Z,6.03
2022-11-25T03:17:14.816Z,7.47
2022-11-25T03:22:17.365Z,8.20
2022-11-25T03:27:21.323Z,9.23
2022-11-25T03:32:23.919Z,5.88
2022-11-25T03:37:26.510Z,7.22
2022-11-25T03:42:30.640Z,12.20
2022-11-25T03:47:34.082Z,3.78
2022-11-25T03:52:36.721Z,9.35
2022-11-25T03:57:41.294Z,6.97
2022-11-25T04:07:46.604Z,8.18
2022-11-25T04:12:52.466Z,8.13
2022-11-25T04:17:55.051Z,8.52
2022-11-25T04:22:57.606Z,6.60
2022-11-25T04:28:01.547Z,6.30
2022-11-25T04:33:04.193Z,5.32
2022-11-25T04:38:06.754Z,8.32
2022-11-25T04:43:10.906Z,10.13
2022-11-25T04:48:13.556Z,4.88
2022-11-25T04:53:16.441Z,7.30
2022-11-25T04:58:40.394Z,6.70
2022-11-25T05:03:48.792Z,7.43
2022-11-25T05:08:53.464Z,8.30
2022-11-25T05:13:57.388Z,9.88
2022-11-25T05:18:59.937Z,7.05
2022-11-25T05:24:02.543Z,10.30
2022-11-25T05:29:06.576Z,8.38
2022-11-25T05:34:09.321Z,7.10
2022-11-25T05:39:11.878Z,9.45
2022-11-25T05:44:21.223Z,10.00
2022-11-25T05:49:26.042Z,6.15
2022-11-25T05:54:28.625Z,9.20
2022-11-25T05:59:32.535Z,9.45
2022-11-25T06:04:35.372Z,8.88
2022-11-25T06:09:38.381Z,15.32
2022-11-25T06:14:42.288Z,9.45
2022-11-25T06:19:47.942Z,6.80
2022-11-25T06:24:58.925Z,9.25
2022-11-25T06:30:15.358Z,10.45
2022-11-25T06:35:18.386Z,6.93
2022-11-25T06:40:21.292Z,16.83
2022-11-25T06:45:25.282Z,8.65
2022-11-25T06:50:27.928Z,13.77
2022-11-25T06:55:30.511Z,7.07
2022-11-25T07:00:34.561Z,10.45
2022-11-25T07:05:37.453Z,9.75
2022-11-25T07:10:40.078Z,10.02
2022-11-25T07:15:44.068Z,12.25
2022-11-25T07:20:46.808Z,7.70
2022-11-25T07:25:49.690Z,10.07
2022-11-25T07:36:16.343Z,8.60
2022-11-25T07:41:20.661Z,16.77
2022-11-25T07:51:33.213Z,12.77
2022-11-25T07:56:37.497Z,10.93
2022-11-25T08:01:42.334Z,7.55
2022-11-25T08:06:46.800Z,7.72
2022-11-25T08:11:52.175Z,12.63
2022-11-25T08:16:56.101Z,16.20
2022-11-25T08:21:58.877Z,11.50
2022-11-25T08:27:01.944Z,11.95
2022-11-25T08:32:11.845Z,9.65
2022-11-25T08:37:14.763Z,8.68
2022-11-25T08:42:17.489Z,11.43
2022-11-25T08:47:21.675Z,7.88
2022-11-25T08:52:24.787Z,4.25
2022-11-25T08:57:27.610Z,7.30
2022-11-25T09:02:31.714Z,8.50
2022-11-25T09:07:34.425Z,5.60
2022-11-25T09:12:37.473Z,9.57
2022-11-25T09:17:41.422Z,7.13
2022-11-25T09:22:45.213Z,7.70
2022-11-25T09:27:47.886Z,8.43
2022-11-25T09:32:53.863Z,6.47
2022-11-25T09:37:56.494Z,10.70
2022-11-25T09:43:25.548Z,10.10
2022-11-25T09:48:52.589Z,11.15
2022-11-25T09:53:57.900Z,7.47
2022-11-25T09:59:06.422Z,6.68
2022-11-25T10:04:14.389Z,6.25
2022-11-25T10:09:23.419Z,5.13
2022-11-25T10:14:31.944Z,14.57
2022-11-25T10:19:44.739Z,7.15
2022-11-25T10:24:47.727Z,4.63
2022-11-25T10:30:00.161Z,5.32
2022-11-25T10:35:09.039Z,5.50
2022-11-25T10:40:15.952Z,4.25
2022-11-25T10:45:21.736Z,5.95
2022-11-25T10:50:32.404Z,7.75
2022-11-25T10:55:35.102Z,6.07
2022-11-25T11:00:39.239Z,9.15
2022-11-25T11:05:48.929Z,3.90
2022-11-25T11:11:11.376Z,3.35
2022-11-25T11:16:28.739Z,4.10
2022-11-25T11:21:35.530Z,4.15
2022-11-25T11:26:38.371Z,5.90
2022-11-25T11:31:45.468Z,4.75
2022-11-25T11:37:05.784Z,9.18
2022-11-25T11:42:15.150Z,6.20
2022-11-25T11:47:27.287Z,9.15
2022-11-25T11:52:41.844Z,5.40
2022-11-25T12:03:00.684Z,4.57
2022-11-25T12:08:11.080Z,4.68
2022-11-25T12:13:20.911Z,2.58
2022-11-25T12:18:46.062Z,5.10
2022-11-25T12:23:59.508Z,4.20
2022-11-25T12:29:06.762Z,6.82
2022-11-25T12:34:16.270Z,2.50
2022-11-25T12:39:27.241Z,7.05
2022-11-25T12:44:34.665Z,4.32
2022-11-25T12:49:43.672Z,3.97
2022-11-25T12:55:06.747Z,7.88
2022-11-25T13:00:40.384Z,3.58
2022-11-25T13:05:59.620Z,3.78
2022-11-25T13:11:25.779Z,5.90
2022-11-25T13:16:30.044Z,3.83
2022-11-25T13:21:33.195Z,3.15
2022-11-25T13:26:54.118Z,5.38
2022-11-25T13:31:59.479Z,8.88
2022-11-25T13:37:04.302Z,6.75
2022-11-25T13:47:32.113Z,8.05
2022-11-25T13:52:41.642Z,8.68
2022-11-25T17:31:47.244Z,11.00
2022-11-25T17:36:52.059Z,7.60
2022-11-25T17:41:54.607Z,9.70
2022-11-25T17:46:59.729Z,11.07
2022-11-25T17:52:02.378Z,6.65
2022-11-25T17:57:06.199Z,9.18
2022-11-25T18:02:18.404Z,5.97
2022-11-25T18:07:21.091Z,8.52
2022-11-25T18:12:31.886Z,8.10
2022-11-25T18:17:37.205Z,11.25
2022-11-25T18:22:39.726Z,7.45
2022-11-25T18:27:42.809Z,5.80
2022-11-25T18:32:47.206Z,8.68
2022-11-25T18:37:49.985Z,7.55
2022-11-25T18:42:57.879Z,7.28
2022-11-25T18:48:02.031Z,6.82
2022-11-25T18:53:04.593Z,7.30
2022-11-25T18:58:16.357Z,7.85
2022-11-25T19:03:22.766Z,6.75
2022-11-25T19:08:25.360Z,7.32
2022-11-25T19:13:33.933Z,7.82
2022-11-25T19:18:38.036Z,10.40
2022-11-25T19:23:41.538Z,7.90
2022-11-25T19:28:49.516Z,9.52
2022-11-25T19:33:55.455Z,10.00
2022-11-25T19:38:58.902Z,13.85
2022-11-25T19:44:01.536Z,10.30
2022-11-25T19:49:06.528Z,7.70
2022-11-25T19:54:13.110Z,7.45
2022-11-25T19:59:15.823Z,10.13
2022-11-25T20:04:21.796Z,9.10
2022-11-25T20:09:24.336Z,9.82
2022-11-25T20:14:34.536Z,14.35
2022-11-25T20:19:39.084Z,10.10
2022-11-25T20:24:41.713Z,6.43
2022-11-25T20:29:44.393Z,9.27
2022-11-25T20:34:48.529Z,10.27
2022-11-25T20:39:53.390Z,11.95
2022-11-25T20:44:57.828Z,8.77
2022-11-25T20:50:01.922Z,12.10
2022-11-25T20:55:15.744Z,7.25
2022-11-25T21:00:20.937Z,13.63
2022-11-25T21:05:25.034Z,11.30
2022-11-25T21:10:30.049Z,7.80
2022-11-25T21:15:32.775Z,12.52
2022-11-25T21:20:37.187Z,13.23
2022-11-25T21:25:39.819Z,9.70
2022-11-25T21:30:42.458Z,15.70
2022-11-25T21:35:49.024Z,13.50
2022-11-25T21:40:53.943Z,13.60
2022-11-25T21:46:01.985Z,14.68
2022-11-25T21:51:06.301Z,14.02
2022-11-25T21:56:18.305Z,12.52
2022-11-25T22:01:24.819Z,16.35
2022-11-25T22:06:33.500Z,14.55
2022-11-25T22:11:38.883Z,16.95
2022-11-25T22:16:41.768Z,15.60
2022-11-25T22:21:45.811Z,17.80
2022-11-25T22:26:56.005Z,13.65
2022-11-25T22:32:00.345Z,16.08
2022-11-25T22:37:04.345Z,16.60
2022-11-25T22:42:07.915Z,14.77
2022-11-25T22:47:18.023Z,11.23
2022-11-25T22:52:24.899Z,17.63
2022-11-25T22:57:27.440Z,13.25
2022-11-25T23:02:34.875Z,15.68
2022-11-25T23:07:38.830Z,16.25
2022-11-25T23:12:41.485Z,15.82
2022-11-25T23:17:49.320Z,16.75
2022-11-25T23:22:53.327Z,14.50
2022-11-25T23:27:57.057Z,15.93
2022-11-25T23:32:59.810Z,17.70
2022-11-25T23:38:04.403Z,18.30
2022-11-25T23:48:12.354Z,18.35
2022-11-25T23:53:23.236Z,24.90
2022-11-25T23:58:25.819Z,15.65
